Time;durP1;ratioP1;P1;durP2;ratioP2;P2;SDS_P1;SDS_P2;PMS_P1;PMS_P2;Temp;Humidity;BMP_temperature;BMP_pressure;BME280_temperature;BME280_humidity;BME280_pressure;Samples;Min_cycle;Max_cycle;Signal;HPM_P1;HPM_P2
2022/04/25 00:01:58;;;;;;;44.80;40.00;;;;;;;7.41;82.82;96569.02;105421;1287;23690;-81
2022/04/25 00:04:26;;;;;;;56.10;42.10;;;;;;;7.37;82.55;96566.95;104794;1289;22626;-81
2022/04/25 00:06:57;;;;;;;62.60;47.00;;;;;;;7.32;82.83;96567.56;105984;1289;27980;-81
2022/04/25 00:09:27;;;;;;;78.10;58.60;;;;;;;7.29;82.98;96573.02;106545;1287;22541;-80
2022/04/25 00:11:55;;;;;;;88.00;59.10;;;;;;;7.25;82.79;96571.98;105528;1288;22642;-79
2022/04/25 00:14:22;;;;;;;107.30;63.60;;;;;;;7.18;82.85;96571.10;104988;1287;25302;-81
2022/04/25 00:16:55;;;;;;;99.10;65.00;;;;;;;7.07;82.83;96568.81;105845;1287;22584;-79
2022/04/25 00:19:24;;;;;;;80.50;64.00;;;;;;;6.98;83.02;96569.63;106167;1287;25214;-78
2022/04/25 00:21:51;;;;;;;86.30;56.10;;;;;;;6.96;83.00;96570.19;105908;1287;23276;-81
2022/04/25 00:24:20;;;;;;;80.80;53.30;;;;;;;6.93;82.93;96571.13;105168;1287;22624;-81
2022/04/25 00:26:48;;;;;;;72.80;49.50;;;;;;;6.89;83.08;96570.84;105278;1288;25660;-80
2022/04/25 00:29:16;;;;;;;53.50;42.30;;;;;;;6.84;82.79;96571.73;106126;1289;22558;-81
2022/04/25 00:31:44;;;;;;;57.70;47.60;;;;;;;6.76;83.19;96576.84;106548;1287;23779;-80
2022/04/25 00:34:12;;;;;;;52.90;43.60;;;;;;;6.74;83.45;96579.52;105047;1287;25431;-80
2022/04/25 00:36:40;;;;;;;47.40;40.50;;;;;;;6.77;83.71;96574.00;105160;1289;22548;-80
2022/04/25 00:39:07;;;;;;;66.80;51.60;;;;;;;6.78;83.67;96568.64;105171;1289;24104;-80
2022/04/25 00:41:35;;;;;;;56.00;49.10;;;;;;;6.76;83.28;96567.46;104747;1288;22916;-81
2022/04/25 00:44:03;;;;;;;54.00;46.70;;;;;;;6.75;83.45;96573.23;105030;1287;22597;-81
2022/04/25 00:46:32;;;;;;;52.30;46.10;;;;;;;6.75;83.67;96577.66;105075;1288;25266;-81
2022/04/25 00:48:59;;;;;;;59.30;49.90;;;;;;;6.75;83.71;96572.44;105136;1288;22886;-79
2022/04/25 00:51:27;;;;;;;38.80;34.50;;;;;;;6.74;83.58;96577.84;104956;1287;24270;-82
2022/04/25 00:53:56;;;;;;;49.40;44.00;;;;;;;6.68;83.17;96583.41;105118;1287;23769;-81
2022/04/25 00:56:26;;;;;;;87.40;70.00;;;;;;;6.67;83.41;96580.77;105279;1287;24321;-81
2022/04/25 00:58:54;;;;;;;63.40;53.20;;;;;;;6.67;83.54;96582.21;105178;1289;22710;-80
2022/04/25 01:01:24;;;;;;;89.50;58.10;;;;;;;6.65;83.66;96585.15;105430;1287;23449;-81
2022/04/25 01:03:52;;;;;;;56.00;46.10;;;;;;;6.59;83.48;96583.45;105265;1287;23345;-82
2022/04/25 01:06:20;;;;;;;52.80;46.50;;;;;;;6.58;83.60;96581.45;104935;1287;25282;-80
2022/04/25 01:08:51;;;;;;;54.70;42.30;;;;;;;6.61;83.55;96583.05;104936;1287;25498;-80
2022/04/25 01:11:20;;;;;;;90.80;58.30;;;;;;;6.60;83.40;96580.02;104977;1287;25423;-80
2022/04/25 01:13:47;;;;;;;56.80;48.40;;;;;;;6.55;83.22;96582.29;105210;1287;23364;-78
2022/04/25 01:16:15;;;;;;;52.40;46.80;;;;;;;6.47;83.62;96580.27;104802;1288;22601;-82
2022/04/25 01:18:43;;;;;;;62.20;56.20;;;;;;;6.45;83.84;96581.30;104864;1287;25387;-81
2022/04/25 01:21:13;;;;;;;47.50;42.30;;;;;;;6.47;84.01;96580.92;105022;1287;23462;-80
2022/04/25 01:29:15;;;;;;;20.50;18.60;;;;;;;6.55;83.98;96580.40;106246;1287;22504;-82
2022/04/25 01:31:42;;;;;;;34.50;31.60;;;;;;;6.60;84.55;96577.44;106019;1287;24732;-81
2022/04/25 01:34:10;;;;;;;30.20;27.40;;;;;;;6.65;84.36;96581.35;105208;1287;22568;-81
2022/04/25 01:36:38;;;;;;;25.40;22.90;;;;;;;6.65;84.12;96580.11;104995;1287;22626;-83
2022/04/25 01:39:06;;;;;;;23.90;21.50;;;;;;;6.66;84.16;96573.45;104977;1288;22697;-80
2022/04/25 01:41:34;;;;;;;24.00;21.90;;;;;;;6.69;84.26;96569.55;104828;1289;22608;-81
2022/04/25 01:44:02;;;;;;;19.90;18.10;;;;;;;6.69;84.20;96571.92;104982;1287;25438;-81
2022/04/25 01:46:29;;;;;;;22.60;20.50;;;;;;;6.69;84.46;96574.52;105034;1288;22567;-81
2022/04/25 01:48:57;;;;;;;19.90;17.90;;;;;;;6.70;84.54;96577.84;105077;1287;23967;-81
2022/04/25 01:51:26;;;;;;;22.30;20.20;;;;;;;6.71;84.40;96583.88;104982;1287;22660;-81
2022/04/25 01:53:53;;;;;;;17.60;15.80;;;;;;;6.71;84.35;96587.25;105111;1287;22674;-80
2022/04/25 01:56:21;;;;;;;22.50;20.50;;;;;;;6.74;84.56;96580.90;105166;1287;23163;-81
2022/04/25 01:58:49;;;;;;;27.50;25.20;;;;;;;6.77;84.49;96580.82;105172;1287;22703;-81
2022/04/25 02:01:17;;;;;;;21.50;19.50;;;;;;;6.78;84.47;96578.18;105109;1287;22556;-81
2022/04/25 02:03:47;;;;;;;23.80;21.80;;;;;;;6.77;84.47;96576.77;105008;1287;24372;-81
2022/04/25 02:06:15;;;;;;;21.60;19.70;;;;;;;6.75;84.52;96579.11;104930;1287;25314;-81
2022/04/25 02:08:43;;;;;;;24.10;22.00;;;;;;;6.72;84.60;96581.11;104962;1289;24379;-81
2022/04/25 02:11:21;;;;;;;19.90;18.00;;;;;;;6.70;84.70;96583.61;104977;1289;22568;-81
2022/04/25 02:13:51;;;;;;;19.30;17.50;;;;;;;6.69;84.53;96584.68;104899;1288;26639;-82
2022/04/25 02:16:21;;;;;;;21.80;19.80;;;;;;;6.68;84.62;96586.70;104840;1288;23478;-80
2022/04/25 02:18:50;;;;;;;19.80;17.80;;;;;;;6.68;84.63;96585.25;104893;1288;25684;-81
2022/04/25 02:21:19;;;;;;;19.60;17.70;;;;;;;6.68;84.60;96585.28;105248;1288;22711;-81
2022/04/25 02:23:47;;;;;;;20.50;18.60;;;;;;;6.68;84.62;96585.94;105907;1288;22685;-82
2022/04/25 02:26:14;;;;;;;20.40;18.50;;;;;;;6.68;85.04;96585.77;105195;1289;23518;-82
2022/04/25 02:28:42;;;;;;;18.40;16.80;;;;;;;6.70;85.24;96587.55;104963;1288;22717;-82
2022/04/25 02:31:10;;;;;;;18.50;16.70;;;;;;;6.71;84.88;96589.81;105057;1289;25658;-82
2022/04/25 02:33:38;;;;;;;16.20;14.70;;;;;;;6.72;85.08;96596.98;104889;1288;23419;-81
2022/04/25 02:36:06;;;;;;;16.30;14.80;;;;;;;6.74;84.99;96598.48;104808;1289;22635;-82
2022/04/25 02:38:36;;;;;;;16.40;14.90;;;;;;;6.77;85.09;96600.86;104568;1291;24237;-83
2022/04/25 02:41:04;;;;;;;19.40;16.50;;;;;;;6.81;85.35;96605.10;104908;1288;24938;-83
2022/04/25 02:43:40;;;;;;;19.70;17.80;;;;;;;6.85;85.37;96605.66;104835;1288;22635;-83
2022/04/25 02:46:15;;;;;;;17.30;15.80;;;;;;;6.84;85.38;96603.89;105664;1286;22594;-81
2022/04/25 02:48:45;;;;;;;17.50;15.90;;;;;;;6.82;85.06;96605.92;108261;1288;23066;-80
2022/04/25 02:51:15;;;;;;;15.40;13.90;;;;;;;6.80;85.25;96607.59;108357;1288;22648;-80
2022/04/25 02:53:43;;;;;;;15.50;14.10;;;;;;;6.84;85.56;96612.45;106754;1288;25319;-81
2022/04/25 02:56:11;;;;;;;19.10;17.20;;;;;;;6.93;85.47;96610.96;105324;1288;25373;-81
2022/04/25 02:58:39;;;;;;;18.00;16.30;;;;;;;6.93;85.26;96614.97;105150;1289;24341;-83
2022/04/25 03:01:08;;;;;;;17.40;15.90;;;;;;;6.92;85.54;96615.98;104989;1288;23388;-80
2022/04/25 03:03:38;;;;;;;16.90;15.30;;;;;;;6.93;85.69;96617.40;104952;1288;22710;-81
2022/04/25 03:06:09;;;;;;;19.20;17.50;;;;;;;6.93;85.60;96614.65;104875;1289;22563;-83
2022/04/25 03:08:39;;;;;;;18.50;16.80;;;;;;;6.96;85.49;96616.46;104782;1288;25123;-79
2022/04/25 03:11:09;;;;;;;25.60;23.20;;;;;;;7.00;85.58;96610.02;105110;1288;22723;-81
2022/04/25 03:13:38;;;;;;;32.60;29.40;;;;;;;7.03;85.67;96610.17;104882;1288;24252;-82
2022/04/25 03:16:07;;;;;;;67.40;55.00;;;;;;;7.01;85.61;96614.77;104931;1288;23959;-81
2022/04/25 03:18:35;;;;;;;46.20;41.10;;;;;;;6.99;85.75;96614.27;104807;1288;22568;-82
2022/04/25 03:21:05;;;;;;;39.10;35.10;;;;;;;7.01;85.75;96616.82;104923;1288;22570;-82
2022/04/25 03:23:36;;;;;;;30.70;27.60;;;;;;;7.00;85.71;96615.31;104859;1288;22569;-82
2022/04/25 03:26:06;;;;;;;50.30;45.10;;;;;;;7.00;85.60;96615.87;104844;1288;22582;-82
2022/04/25 03:28:34;;;;;;;58.30;52.60;;;;;;;7.00;85.73;96617.31;104781;1288;22573;-82
2022/04/25 03:31:06;;;;;;;46.80;42.50;;;;;;;6.99;85.89;96616.25;104846;1288;23392;-80
2022/04/25 03:33:35;;;;;;;44.10;40.30;;;;;;;6.98;85.75;96620.31;104847;1288;23073;-82
2022/04/25 03:36:04;;;;;;;37.20;33.90;;;;;;;6.96;85.76;96622.89;104807;1288;23953;-82
2022/04/25 03:38:32;;;;;;;35.60;32.40;;;;;;;6.95;86.10;96619.36;104905;1288;23594;-82
2022/04/25 03:41:01;;;;;;;27.30;24.70;;;;;;;6.97;86.01;96622.52;104967;1289;23993;-82
2022/04/25 03:43:30;;;;;;;42.40;38.90;;;;;;;6.97;86.03;96620.98;104620;1289;24449;-83
2022/04/25 03:45:59;;;;;;;39.90;36.60;;;;;;;6.99;86.47;96620.51;104899;1288;22569;-82
2022/04/25 03:48:27;;;;;;;25.30;23.10;;;;;;;7.01;86.22;96622.27;104975;1287;22711;-82
2022/04/25 03:50:55;;;;;;;21.00;19.20;;;;;;;7.01;86.05;96623.88;104962;1288;22621;-82
2022/04/25 03:53:23;;;;;;;20.20;18.30;;;;;;;7.02;86.08;96624.02;104768;1288;22645;-82
2022/04/25 03:58:37;;;;;;;51.10;46.90;;;;;;;7.11;86.66;96630.60;104791;1288;22719;-82
2022/04/25 04:01:04;;;;;;;34.30;31.50;;;;;;;7.14;86.44;96630.79;104788;1289;22702;-82
2022/04/25 04:03:36;;;;;;;22.80;20.80;;;;;;;7.16;86.30;96632.84;104794;1288;25215;-81
2022/04/25 04:06:04;;;;;;;22.70;20.70;;;;;;;7.20;86.48;96634.13;104820;1288;22573;-82
2022/04/25 04:08:32;;;;;;;24.10;22.10;;;;;;;7.28;86.56;96635.68;104864;1288;22576;-82
2022/04/25 04:10:59;;;;;;;25.70;23.30;;;;;;;7.34;86.61;96628.29;104846;1288;22736;-82
2022/04/25 04:13:28;;;;;;;26.90;24.80;;;;;;;7.36;86.67;96630.85;104841;1288;22646;-82
2022/04/25 04:15:57;;;;;;;30.50;28.10;;;;;;;7.39;86.55;96637.96;104829;1288;22560;-82
2022/04/25 04:18:25;;;;;;;26.40;24.20;;;;;;;7.44;86.64;96641.58;104837;1288;22630;-81
2022/04/25 04:20:53;;;;;;;25.50;23.40;;;;;;;7.51;86.71;96642.84;104847;1288;25267;-81
2022/04/25 04:23:21;;;;;;;31.60;28.80;;;;;;;7.58;86.54;96635.10;104823;1288;25380;-81
2022/04/25 04:25:48;;;;;;;48.00;42.90;;;;;;;7.63;86.65;96639.13;104857;1288;22560;-81
2022/04/25 04:28:16;;;;;;;43.40;38.90;;;;;;;7.67;86.67;96643.21;104884;1288;24328;-81
2022/04/25 04:30:46;;;;;;;36.60;33.20;;;;;;;7.70;86.68;96642.80;104848;1290;25448;-82
2022/04/25 04:33:14;;;;;;;28.70;26.10;;;;;;;7.71;86.90;96646.54;104800;1288;22903;-81
2022/04/25 04:38:29;;;;;;;25.40;23.10;;;;;;;7.75;86.69;96650.02;104873;1288;25376;-82
2022/04/25 04:40:56;;;;;;;25.00;22.80;;;;;;;7.80;86.97;96651.11;104849;1288;25256;-82
2022/04/25 04:43:24;;;;;;;27.20;24.80;;;;;;;7.88;87.06;96654.80;104855;1288;24445;-84
2022/04/25 04:45:52;;;;;;;28.80;26.30;;;;;;;7.97;87.18;96656.58;104926;1288;22678;-83
2022/04/25 04:48:20;;;;;;;28.70;26.40;;;;;;;8.05;87.75;96652.91;104923;1288;22582;-84
2022/04/25 04:50:50;;;;;;;31.20;28.30;;;;;;;8.12;87.55;96651.13;105333;1288;25373;-83
2022/04/25 04:53:18;;;;;;;256.00;171.40;;;;;;;8.20;87.58;96654.64;104951;1288;25487;-84
2022/04/25 04:55:46;;;;;;;128.10;92.40;;;;;;;8.27;87.18;96655.52;104995;1287;22559;-84
2022/04/25 04:58:14;;;;;;;69.90;62.80;;;;;;;8.37;87.41;96656.89;105055;1288;25477;-83
2022/04/25 05:00:44;;;;;;;41.20;37.30;;;;;;;8.45;87.35;96658.88;105006;1288;22569;-83
2022/04/25 05:03:15;;;;;;;58.60;53.30;;;;;;;8.47;86.81;96666.23;104955;1289;23301;-83
2022/04/25 05:05:45;;;;;;;40.70;37.00;;;;;;;8.46;86.65;96666.29;105057;1288;22704;-83
2022/04/25 05:08:13;;;;;;;42.00;38.40;;;;;;;8.50;86.64;96668.61;104828;1288;22574;-83
2022/04/25 05:10:40;;;;;;;34.80;31.80;;;;;;;8.58;86.88;96667.01;104944;1288;24522;-83
2022/04/25 05:13:09;;;;;;;39.90;36.40;;;;;;;8.69;87.02;96663.08;104953;1288;22569;-83
2022/04/25 05:15:37;;;;;;;42.30;38.70;;;;;;;8.79;87.31;96663.08;104928;1288;24275;-83
2022/04/25 05:18:05;;;;;;;45.90;41.80;;;;;;;8.92;87.73;96666.79;104873;1288;22570;-85
2022/04/25 05:20:33;;;;;;;46.60;42.40;;;;;;;9.06;87.78;96664.31;104868;1288;24170;-84
2022/04/25 05:23:03;;;;;;;45.30;41.40;;;;;;;9.23;87.91;96660.41;104877;1288;25349;-83
2022/04/25 05:25:31;;;;;;;42.00;38.40;;;;;;;9.40;87.89;96662.59;104899;1288;25337;-83
2022/04/25 05:27:59;;;;;;;45.10;41.10;;;;;;;9.58;87.75;96665.54;104885;1288;22582;-84
2022/04/25 05:30:27;;;;;;;49.30;45.20;;;;;;;9.73;87.53;96665.93;104857;1290;25413;-82
2022/04/25 05:32:58;;;;;;;64.20;58.90;;;;;;;9.88;87.87;96670.52;104895;1288;22790;-83
2022/04/25 05:35:28;;;;;;;55.90;51.30;;;;;;;10.00;87.70;96673.30;104976;1288;25337;-84
2022/04/25 05:38:06;;;;;;;60.20;55.00;;;;;;;10.12;87.72;96676.48;104931;1288;25477;-84
2022/04/25 05:40:34;;;;;;;67.50;61.40;;;;;;;10.26;87.56;96676.85;104909;1288;25381;-84
2022/04/25 05:43:04;;;;;;;68.10;62.10;;;;;;;10.38;87.63;96678.42;104946;1289;22571;-84
2022/04/25 05:45:33;;;;;;;58.30;53.50;;;;;;;10.53;87.55;96685.13;104915;1288;23947;-85
2022/04/25 05:51:58;;;;;;;62.30;57.00;;;;;;;10.62;87.41;96684.61;104952;1288;25362;-83
2022/04/25 05:53:39;;;;;;;43.60;39.90;;;;;;;10.71;87.17;96689.92;104987;1288;22678;-84
2022/04/25 05:56:07;;;;;;;43.60;39.80;;;;;;;10.65;86.34;96689.74;104927;1288;25343;-83
2022/04/25 05:58:35;;;;;;;46.50;42.40;;;;;;;10.60;86.19;96693.61;104992;1288;22646;-84
2022/04/25 06:01:02;;;;;;;43.30;39.50;;;;;;;10.55;86.26;96703.19;104917;1288;22629;-84
2022/04/25 06:03:30;;;;;;;32.10;29.20;;;;;;;10.50;86.42;96705.77;104955;1288;24152;-84
2022/04/25 06:05:58;;;;;;;27.60;25.00;;;;;;;10.49;86.53;96708.27;104969;1290;22573;-84
2022/04/25 06:08:26;;;;;;;26.60;24.20;;;;;;;10.46;86.21;96705.34;104930;1289;24374;-83
2022/04/25 06:10:54;;;;;;;22.70;20.50;;;;;;;10.46;86.37;96709.59;104955;1288;22714;-84
2022/04/25 06:13:24;;;;;;;20.00;18.00;;;;;;;10.47;86.31;96709.61;104943;1288;23281;-83
2022/04/25 06:15:52;;;;;;;20.80;18.80;;;;;;;10.45;86.30;96712.48;104986;1288;25424;-84
2022/04/25 06:18:20;;;;;;;22.00;19.70;;;;;;;10.42;86.39;96713.89;104997;1288;22576;-85
2022/04/25 06:20:50;;;;;;;21.60;17.80;;;;;;;10.40;86.51;96714.95;104931;1288;22609;-84
2022/04/25 06:23:18;;;;;;;21.20;17.10;;;;;;;10.40;86.38;96715.04;104993;1288;23308;-83
2022/04/25 06:25:46;;;;;;;67.20;60.60;;;;;;;10.43;86.42;96713.92;105000;1288;25423;-84
2022/04/25 06:28:13;;;;;;;27.40;21.90;;;;;;;10.50;86.55;96710.16;105507;1289;24192;-85
2022/04/25 06:30:41;;;;;;;31.20;21.60;;;;;;;10.57;86.59;96713.83;104992;1289;22573;-84
2022/04/25 06:33:09;;;;;;;49.20;24.50;;;;;;;10.62;86.61;96711.16;104929;1288;22567;-83
2022/04/25 06:35:37;;;;;;;52.70;31.00;;;;;;;10.63;86.43;96708.15;104981;1289;22630;-84
2022/04/25 06:38:05;;;;;;;38.10;23.10;;;;;;;10.66;86.18;96708.24;104984;1288;24246;-83
2022/04/25 06:40:33;;;;;;;35.70;22.50;;;;;;;10.70;86.37;96709.24;104903;1289;23699;-84
2022/04/25 06:43:02;;;;;;;25.60;23.10;;;;;;;10.76;86.42;96703.73;104925;1290;24118;-84
2022/04/25 06:45:30;;;;;;;26.80;24.20;;;;;;;10.85;86.79;96702.17;104945;1288;22673;-81
2022/04/25 06:47:58;;;;;;;26.60;23.70;;;;;;;10.95;86.56;96702.22;104942;1289;22926;-83
2022/04/25 06:50:26;;;;;;;25.50;22.70;;;;;;;11.03;86.78;96702.04;104872;1289;24279;-83
2022/04/25 06:52:54;;;;;;;24.90;22.10;;;;;;;11.08;86.20;96708.02;104955;1289;22560;-83
2022/04/25 06:55:22;;;;;;;25.50;23.00;;;;;;;11.11;85.98;96712.97;105914;1288;22593;-83
2022/04/25 06:57:52;;;;;;;28.70;25.90;;;;;;;11.14;86.00;96719.85;105704;1289;24252;-83
2022/04/25 07:00:21;;;;;;;31.20;28.10;;;;;;;11.21;86.15;96720.23;104824;1288;22757;-83
2022/04/25 07:03:05;;;;;;;36.30;32.70;;;;;;;11.21;85.73;96722.55;104897;1288;22614;-83
2022/04/25 07:05:33;;;;;;;31.90;28.70;;;;;;;11.22;85.93;96722.20;104998;1288;22653;-83
2022/04/25 07:08:01;;;;;;;27.10;24.40;;;;;;;11.27;85.89;96720.94;104889;1289;24214;-83
2022/04/25 07:10:29;;;;;;;22.00;20.00;;;;;;;11.30;85.46;96720.88;104958;1288;24790;-82
2022/04/25 07:12:57;;;;;;;26.80;24.30;;;;;;;11.34;85.36;96717.39;104817;1290;25424;-83
2022/04/25 07:15:24;;;;;;;28.60;26.10;;;;;;;11.38;85.55;96716.30;104908;1289;22548;-83
2022/04/25 07:17:55;;;;;;;24.70;22.40;;;;;;;11.47;85.74;96716.14;104875;1289;25359;-83
2022/04/25 07:20:23;;;;;;;23.40;21.30;;;;;;;11.51;85.47;96711.35;104893;1291;22621;-83
2022/04/25 07:31:13;;;;;;;20.10;18.30;;;;;;;11.91;85.39;96722.17;104864;1290;25306;-84
2022/04/25 07:33:43;;;;;;;19.30;17.30;;;;;;;12.00;85.45;96721.40;104724;1290;22583;-84
2022/04/25 07:36:15;;;;;;;17.70;15.90;;;;;;;12.07;85.23;96725.88;105180;1288;24336;-92
2022/04/25 07:38:46;;;;;;;27.90;17.40;;;;;;;12.20;85.40;96726.05;105480;1290;22631;-88
2022/04/25 07:41:14;;;;;;;21.90;16.70;;;;;;;12.33;85.50;96725.23;105398;1287;25510;-89
2022/04/25 07:43:43;;;;;;;18.40;16.60;;;;;;;12.43;85.18;96725.39;105226;1290;22580;-92
2022/04/25 07:46:16;;;;;;;21.40;16.30;;;;;;;12.50;85.04;96728.77;105405;1287;23380;-92
2022/04/25 07:48:44;;;;;;;19.70;16.90;;;;;;;12.58;84.98;96731.64;105577;1287;22575;-91
2022/04/25 07:51:12;;;;;;;17.90;15.70;;;;;;;12.61;84.65;96732.02;105504;1287;22694;-92
2022/04/25 07:53:40;;;;;;;14.90;13.50;;;;;;;12.68;84.56;96737.17;105634;1287;24184;-90
2022/04/25 07:56:08;;;;;;;15.90;14.30;;;;;;;12.71;84.01;96737.89;105426;1287;22696;-91
2022/04/25 07:58:37;;;;;;;16.40;14.80;;;;;;;12.74;83.84;96743.23;105211;1287;22582;-89
2022/04/25 08:01:05;;;;;;;16.50;13.90;;;;;;;12.79;83.81;96739.74;105301;1287;22664;-92
2022/04/25 08:03:35;;;;;;;14.20;12.70;;;;;;;12.86;83.84;96743.56;106315;1287;22602;-92
2022/04/25 08:06:05;;;;;;;14.80;13.40;;;;;;;12.92;83.41;96744.20;106942;1287;22619;-87
2022/04/25 08:08:33;;;;;;;17.00;15.20;;;;;;;12.99;83.52;96743.33;108515;1287;22654;-87
2022/04/25 08:11:01;;;;;;;15.40;13.40;;;;;;;13.08;83.22;96746.84;107380;1287;22543;-91
2022/04/25 08:19:03;;;;;;;12.80;11.40;;;;;;;13.27;82.53;96751.33;105992;1287;24270;-91
2022/04/25 08:21:31;;;;;;;15.30;13.70;;;;;;;13.29;82.41;96751.33;105301;1287;26114;-88
2022/04/25 08:23:59;;;;;;;13.40;11.30;;;;;;;13.31;82.27;96751.30;105952;1287;25259;-91
2022/04/25 08:26:26;;;;;;;13.00;11.60;;;;;;;13.27;81.67;96751.49;105489;1287;26665;-93
2022/04/25 08:28:54;;;;;;;12.20;11.00;;;;;;;13.20;81.46;96754.13;107970;1287;22629;-87
2022/04/25 08:31:33;;;;;;;13.60;12.10;;;;;;;13.13;81.32;96758.65;108507;1287;22725;-86
2022/04/25 08:34:03;;;;;;;14.10;11.20;;;;;;;13.13;81.51;96757.12;108553;1287;22704;-89
2022/04/25 08:36:33;;;;;;;19.30;17.20;;;;;;;13.20;81.26;96758.29;108434;1287;22981;-88
2022/04/25 08:39:02;;;;;;;16.30;14.50;;;;;;;13.29;81.51;96763.07;108572;1287;22577;-90
2022/04/25 08:41:50;;;;;;;16.80;15.00;;;;;;;13.32;81.12;96761.77;108593;1287;23094;-90
2022/04/25 08:44:19;;;;;;;15.10;13.70;;;;;;;13.30;80.98;96762.49;108569;1287;22760;-91
2022/04/25 08:46:50;;;;;;;15.90;13.40;;;;;;;13.32;81.09;96769.25;107439;1287;22604;-90
2022/04/25 08:49:19;;;;;;;16.40;12.30;;;;;;;13.36;81.06;96768.44;105564;1287;22640;-91
2022/04/25 08:51:49;;;;;;;14.70;13.00;;;;;;;13.45;81.09;96770.45;105191;1287;22637;-90
2022/04/25 08:54:18;;;;;;;15.10;13.60;;;;;;;13.50;80.67;96767.14;105437;1287;22800;-90
2022/04/25 08:56:47;;;;;;;16.80;15.10;;;;;;;13.57;80.76;96766.77;105201;1287;22547;-88
2022/04/25 08:59:15;;;;;;;15.40;13.90;;;;;;;13.63;80.35;96761.14;105368;1287;22743;-91
2022/04/25 09:01:43;;;;;;;15.60;14.00;;;;;;;13.67;80.29;96765.27;105593;1287;24414;-89
2022/04/25 09:04:11;;;;;;;14.50;12.60;;;;;;;13.68;80.16;96764.60;105312;1287;23276;-89
2022/04/25 09:06:40;;;;;;;16.20;14.40;;;;;;;13.66;79.82;96766.70;105188;1287;22572;-89
2022/04/25 09:09:12;;;;;;;14.70;13.20;;;;;;;13.63;79.63;96765.94;105206;1287;22626;-90
2022/04/25 09:14:27;;;;;;;14.90;13.20;;;;;;;13.66;79.36;96767.15;105237;1287;23300;-89
2022/04/25 09:16:55;;;;;;;15.50;13.40;;;;;;;13.76;79.97;96766.52;105437;1287;22563;-89
2022/04/25 09:19:23;;;;;;;16.30;13.90;;;;;;;13.91;79.75;96769.36;105340;1287;23064;-90
2022/04/25 09:21:51;;;;;;;15.00;12.20;;;;;;;14.01;79.52;96769.08;105218;1287;23224;-91
2022/04/25 09:24:27;;;;;;;14.70;13.30;;;;;;;14.10;79.06;96772.09;105092;1287;22719;-91
2022/04/25 09:27:07;;;;;;;20.20;17.80;;;;;;;14.13;78.74;96772.63;105197;1287;22568;-88
2022/04/25 09:29:36;;;;;;;29.70;26.00;;;;;;;14.11;78.43;96776.60;105162;1287;22660;-89
2022/04/25 09:32:06;;;;;;;28.00;23.30;;;;;;;14.05;78.33;96775.55;105174;1287;23999;-88
2022/04/25 09:37:38;;;;;;;16.80;15.00;;;;;;;14.04;77.94;96778.69;105199;1287;23235;-89
2022/04/25 09:40:07;;;;;;;17.70;14.50;;;;;;;14.06;78.00;96777.50;105423;1287;22590;-88
2022/04/25 09:42:36;;;;;;;18.40;13.80;;;;;;;14.01;77.48;96776.52;105301;1287;24349;-88
2022/04/25 09:45:06;;;;;;;16.10;14.30;;;;;;;13.97;77.54;96780.83;105332;1287;25381;-90
2022/04/25 09:47:37;;;;;;;16.10;14.10;;;;;;;13.93;77.39;96781.79;107408;1287;22544;-86
2022/04/25 09:50:08;;;;;;;14.80;12.60;;;;;;;13.88;77.51;96786.85;106011;1287;22600;-89
2022/04/25 09:52:53;;;;;;;15.30;12.40;;;;;;;13.86;77.56;96782.01;105461;1287;22718;-89
2022/04/25 09:55:23;;;;;;;16.10;12.60;;;;;;;13.84;77.02;96779.70;105568;1287;25556;-88
2022/04/25 09:57:51;;;;;;;21.40;13.90;;;;;;;13.81;76.91;96784.34;105285;1287;22577;-87
2022/04/25 10:00:33;;;;;;;15.60;12.60;;;;;;;13.80;76.86;96779.23;105309;1287;22576;-90
2022/04/25 10:03:02;;;;;;;11.00;9.70;;;;;;;13.83;76.86;96782.40;105502;1287;22728;-91
2022/04/25 10:05:43;;;;;;;16.80;11.50;;;;;;;13.87;76.92;96786.36;105329;1286;25407;-89
2022/04/25 10:08:22;;;;;;;14.20;11.50;;;;;;;13.92;76.65;96786.02;105286;1287;22589;-87
2022/04/25 10:10:57;;;;;;;13.70;11.40;;;;;;;13.96;76.34;96789.61;105314;1287;22611;-87
2022/04/25 10:13:25;;;;;;;11.40;8.70;;;;;;;13.98;76.22;96790.14;105263;1287;22680;-88
2022/04/25 10:15:56;;;;;;;8.30;6.60;;;;;;;14.02;75.91;96785.52;105433;1287;22681;-88
2022/04/25 10:18:27;;;;;;;8.90;6.70;;;;;;;14.08;75.78;96787.84;105381;1287;187626;-88
2022/04/25 10:20:55;;;;;;;9.90;7.10;;;;;;;14.16;75.78;96787.09;105655;1287;22592;-86
2022/04/25 10:23:24;;;;;;;7.60;6.20;;;;;;;14.25;75.47;96782.98;105838;1287;23175;-88
2022/04/25 10:25:57;;;;;;;9.00;6.20;;;;;;;14.36;75.05;96783.41;105757;1287;23265;-89
2022/04/25 10:28:52;;;;;;;11.00;7.70;;;;;;;14.48;74.60;96782.99;105577;1287;23972;-89
2022/04/25 10:31:23;;;;;;;11.30;7.80;;;;;;;14.58;74.28;96783.28;105631;1287;24390;-88
2022/04/25 10:33:59;;;;;;;14.30;8.10;;;;;;;14.70;74.11;96781.45;105552;1287;22576;-87
2022/04/25 10:36:36;;;;;;;9.70;7.20;;;;;;;14.76;73.78;96782.13;105442;1287;23045;-87
2022/04/25 10:39:23;;;;;;;9.40;7.10;;;;;;;14.81;73.52;96786.02;105413;1287;25352;-89
2022/04/25 10:44:42;;;;;;;24.80;10.90;;;;;;;14.73;72.79;96787.01;105582;1287;25384;-89
2022/04/25 10:47:13;;;;;;;12.80;8.80;;;;;;;14.77;72.73;96784.54;105625;1287;22715;-87
2022/04/25 10:49:42;;;;;;;15.60;11.30;;;;;;;14.82;72.79;96787.45;105695;1287;25372;-90
2022/04/25 10:55:09;;;;;;;12.40;9.00;;;;;;;15.12;72.16;96790.36;106010;1287;22572;-91
2022/04/25 10:57:37;;;;;;;14.20;11.30;;;;;;;15.15;70.73;96796.55;106345;1287;23341;-91
2022/04/25 11:03:14;;;;;;;13.00;9.60;;;;;;;15.02;68.23;96803.02;105738;1287;22712;-90
2022/04/25 11:05:43;;;;;;;17.40;11.70;;;;;;;14.82;68.58;96802.88;105817;1287;24093;-91
2022/04/25 11:08:21;;;;;;;9.40;7.40;;;;;;;14.64;68.75;96807.42;105713;1287;24315;-91
2022/04/25 11:10:59;;;;;;;10.20;6.80;;;;;;;14.50;69.38;96811.27;105688;1287;24180;-91
2022/04/25 11:13:35;;;;;;;8.90;7.40;;;;;;;14.40;68.66;96818.35;106032;1287;22552;-88
2022/04/25 11:16:23;;;;;;;11.80;8.50;;;;;;;14.25;67.52;96817.75;105845;1287;22605;-90
2022/04/25 11:19:20;;;;;;;12.90;8.50;;;;;;;14.10;68.57;96820.69;105910;1287;22732;-92
2022/04/25 11:21:55;;;;;;;9.70;7.80;;;;;;;13.95;67.79;96826.73;105452;1287;22576;-83
2022/04/25 11:24:33;;;;;;;13.60;9.90;;;;;;;13.80;68.41;96825.70;105177;1286;25438;-80
2022/04/25 11:27:04;;;;;;;11.60;8.90;;;;;;;13.68;68.41;96825.68;105363;1288;25948;-81
2022/04/25 11:29:32;;;;;;;9.80;8.70;;;;;;;13.54;68.69;96833.05;105113;1288;23009;-84
2022/04/25 11:32:35;;;;;;;12.70;11.00;;;;;;;13.37;68.78;96840.58;105167;1287;22577;-84
2022/04/25 11:35:04;;;;;;;15.90;12.00;;;;;;;13.15;69.24;96845.65;105453;1287;23402;-84
2022/04/25 11:37:34;;;;;;;15.00;13.20;;;;;;;12.98;69.53;96850.44;105342;1287;26457;-83
2022/04/25 11:40:05;;;;;;;14.10;12.70;;;;;;;12.77;70.27;96848.73;105195;1288;22574;-82
2022/04/25 11:42:36;;;;;;;16.30;14.60;;;;;;;12.58;70.53;96849.04;105171;1287;22618;-83
2022/04/25 11:45:07;;;;;;;16.70;14.90;;;;;;;12.44;70.68;96852.00;105417;1286;25775;-83
2022/04/25 11:47:35;;;;;;;17.60;15.80;;;;;;;12.37;70.95;96845.73;105386;1287;22586;-82
2022/04/25 11:50:06;;;;;;;15.10;13.60;;;;;;;12.38;71.36;96849.95;105390;1287;24466;-83
2022/04/25 11:52:34;;;;;;;16.70;13.50;;;;;;;12.42;71.42;96847.86;105326;1287;24473;-82
2022/04/25 11:55:03;;;;;;;15.30;12.60;;;;;;;12.45;71.53;96848.71;105200;1287;24424;-83
2022/04/25 11:57:39;;;;;;;13.30;12.00;;;;;;;12.47;71.83;96852.69;105490;1287;25384;-84
2022/04/25 12:00:16;;;;;;;19.00;16.30;;;;;;;12.49;72.10;96855.56;105600;1287;25669;-83
2022/04/25 12:02:45;;;;;;;18.30;16.10;;;;;;;12.53;72.06;96858.77;106938;1288;25376;-82
2022/04/25 12:05:25;;;;;;;19.80;17.90;;;;;;;12.52;71.89;96869.23;106682;1287;22568;-85
2022/04/25 12:16:14;;;;;;;30.90;27.70;;;;;;;11.62;73.46;96879.31;105349;1287;22553;-85
2022/04/25 12:18:51;;;;;;;30.30;27.20;;;;;;;11.51;73.93;96885.00;105428;1287;22919;-82